Time;durP1;ratioP1;P1;durP2;ratioP2;P2;SDS_P1;SDS_P2;PMS_P1;PMS_P2;Temp;Humidity;BMP_temperature;BMP_pressure;BME280_temperature;BME280_humidity;BME280_pressure;Samples;Min_cycle;Max_cycle;Signal;HPM_P1;HPM_P2
2022/12/13 00:00:44;;;;;;;51.53;19.75;;;;;;;-3.50;64.82;98553.09;5086198;29;20056;-71
2022/12/13 00:03:34;;;;;;;52.25;20.25;;;;;;;-3.67;65.18;98556.41;5090088;29;20128;-72
2022/12/13 00:06:26;;;;;;;57.10;20.67;;;;;;;-3.70;66.00;98570.34;5089805;29;20455;-70
2022/12/13 00:09:18;;;;;;;49.75;20.13;;;;;;;-3.72;65.96;98551.41;5089502;29;20594;-72
2022/12/13 00:12:08;;;;;;;54.90;20.27;;;;;;;-3.68;66.20;98559.88;5090269;29;20139;-71
2022/12/13 00:14:57;;;;;;;47.63;19.20;;;;;;;-3.75;66.24;98561.91;5088234;29;20051;-68
2022/12/13 00:17:47;;;;;;;53.22;19.55;;;;;;;-3.78;66.53;98549.06;5090481;29;20059;-69
2022/12/13 00:20:38;;;;;;;57.65;20.13;;;;;;;-3.75;66.17;98551.53;5084911;29;20059;-69
2022/12/13 00:23:28;;;;;;;49.75;18.90;;;;;;;-3.66;66.72;98547.72;5093674;29;20427;-69
2022/12/13 00:26:21;;;;;;;57.03;19.55;;;;;;;-3.61;65.72;98551.81;5084447;29;20063;-68
2022/12/13 00:29:11;;;;;;;53.15;21.10;;;;;;;-3.84;66.05;98539.84;5098735;29;20056;-68
2022/12/13 00:32:02;;;;;;;56.10;20.33;;;;;;;-3.81;65.93;98550.06;5082363;29;20126;-68
2022/12/13 00:34:52;;;;;;;52.13;19.17;;;;;;;-3.89;65.81;98546.09;5085654;29;20092;-68
2022/12/13 00:37:42;;;;;;;58.00;20.40;;;;;;;-3.96;65.70;98532.56;5095499;29;20056;-68
2022/12/13 00:40:32;;;;;;;52.85;19.38;;;;;;;-4.18;65.93;98536.97;5097561;29;20178;-68
2022/12/13 00:43:22;;;;;;;59.88;21.50;;;;;;;-4.29;66.14;98543.41;5077775;29;20147;-68
2022/12/13 00:46:14;;;;;;;57.85;20.17;;;;;;;-4.21;66.13;98548.28;5086226;29;20051;-68
2022/12/13 00:49:04;;;;;;;53.00;19.98;;;;;;;-4.43;66.13;98522.44;5083957;29;20059;-70
2022/12/13 00:51:55;;;;;;;56.88;20.13;;;;;;;-4.34;66.79;98529.84;5084458;29;20062;-70
2022/12/13 00:54:45;;;;;;;55.58;20.92;;;;;;;-4.15;65.98;98542.84;5094762;29;20048;-69
2022/12/13 00:57:35;;;;;;;58.03;20.73;;;;;;;-4.35;66.76;98533.31;5082188;29;20062;-70
2022/12/13 01:00:25;;;;;;;60.08;19.73;;;;;;;-4.40;66.54;98530.09;5079716;29;20059;-70
2022/12/13 01:03:19;;;;;;;62.60;21.65;;;;;;;-4.38;66.38;98524.84;5083253;29;20059;-70
2022/12/13 01:06:09;;;;;;;;;;;;;;;-4.20;66.08;98528.44;5083785;29;20044;-70
2022/12/13 01:09:11;;;;;;;49.80;19.60;;;;;;;-4.21;66.28;98521.56;5100301;29;19923;-69
2022/12/13 01:12:05;;;;;;;56.88;20.00;;;;;;;-4.08;66.53;98520.13;5086520;29;20088;-70
2022/12/13 01:14:55;;;;;;;57.63;20.48;;;;;;;-4.59;65.87;98490.34;5085825;29;20612;-70
2022/12/13 01:17:46;;;;;;;52.83;20.02;;;;;;;-4.39;67.35;98523.16;5099544;29;20107;-70
2022/12/13 01:20:36;;;;;;;56.78;21.00;;;;;;;-4.55;67.19;98507.41;5095515;29;20059;-70
2022/12/13 01:23:27;;;;;;;62.38;21.40;;;;;;;-4.55;66.85;98521.19;5110959;28;20138;-70
2022/12/13 01:26:20;;;;;;;49.83;19.70;;;;;;;-4.61;66.88;98525.75;5091466;29;20056;-69
2022/12/13 01:29:10;;;;;;;53.78;20.33;;;;;;;-4.87;66.56;98488.81;5110452;23;20109;-84
2022/12/13 01:32:00;;;;;;;56.13;20.60;;;;;;;-4.72;66.23;98524.44;5105676;29;20088;-83
2022/12/13 01:34:50;;;;;;;52.30;19.00;;;;;;;-4.72;66.78;98521.03;5094125;29;20058;-83
2022/12/13 01:37:40;;;;;;;52.47;20.45;;;;;;;-4.75;66.69;98519.38;5105038;29;20058;-84
2022/12/13 01:40:30;;;;;;;58.42;20.23;;;;;;;-4.92;66.35;98497.69;5104978;29;20088;-83
2022/12/13 01:43:49;;;;;;;54.38;19.45;;;;;;;-4.74;66.90;98500.38;5105300;29;20059;-83
2022/12/13 01:46:39;;;;;;;58.47;20.40;;;;;;;-4.60;67.29;98511.91;5104850;29;20058;-84
2022/12/13 01:49:30;;;;;;;55.40;20.60;;;;;;;-4.66;67.17;98494.06;5103992;29;20679;-83
2022/12/13 01:52:20;;;;;;;62.13;20.42;;;;;;;-4.76;67.32;98494.44;5104608;29;20063;-83
2022/12/13 01:55:12;;;;;;;49.45;19.67;;;;;;;-4.62;66.43;98511.16;5091333;29;20529;-83
2022/12/13 01:58:03;;;;;;;59.08;21.77;;;;;;;-4.70;68.16;98489.91;5089482;29;20044;-86
2022/12/13 02:00:56;;;;;;;59.72;21.35;;;;;;;-4.59;67.25;98495.50;5101596;29;20134;-84
2022/12/13 02:03:47;;;;;;;50.00;19.95;;;;;;;-4.75;66.90;98487.50;5102903;29;20053;-83
2022/12/13 02:06:41;;;;;;;50.53;19.73;;;;;;;-4.88;66.19;98494.06;5085347;29;20056;-83
2022/12/13 02:09:34;;;;;;;59.13;20.20;;;;;;;-4.84;66.65;98511.97;5076151;29;20043;-83
2022/12/13 02:12:26;;;;;;;;;;;;;;;-4.87;66.79;98504.34;5104047;29;20439;-83
2022/12/13 02:15:20;;;;;;;55.20;19.05;;;;;;;-4.96;66.72;98494.38;5085392;29;19934;-83
2022/12/13 02:18:35;;;;;;;57.63;20.33;;;;;;;-4.84;66.95;98496.47;5105141;29;20059;-83
2022/12/13 02:21:52;;;;;;;56.53;20.80;;;;;;;-4.96;66.65;98490.06;5105746;29;20055;-84
2022/12/13 02:25:08;;;;;;;58.95;19.75;;;;;;;-4.96;66.13;98502.13;5107667;29;20062;-84
2022/12/13 02:28:36;;;;;;;53.25;19.30;;;;;;;-4.92;66.99;98495.09;5095563;29;20121;-83
2022/12/13 02:31:42;;;;;;;60.42;20.60;;;;;;;-4.90;66.68;98496.75;5096941;29;20066;-83
2022/12/13 02:34:40;;;;;;;52.25;20.08;;;;;;;-4.98;66.71;98489.25;5091740;29;20062;-83
2022/12/13 02:37:42;;;;;;;56.25;18.90;;;;;;;-4.97;66.73;98492.69;5106333;29;20134;-84
2022/12/13 02:40:41;;;;;;;53.60;19.33;;;;;;;-5.10;66.40;98479.41;5091813;29;20087;-84
2022/12/13 02:43:40;;;;;;;54.42;19.95;;;;;;;-5.09;66.86;98488.84;5099026;29;20298;-83
2022/12/13 02:46:41;;;;;;;61.65;21.23;;;;;;;-5.12;66.52;98481.19;5092360;29;20073;-84
2022/12/13 02:49:37;;;;;;;57.30;20.05;;;;;;;-5.34;67.02;98454.50;5104301;29;20071;-84
2022/12/13 02:52:30;;;;;;;51.88;19.67;;;;;;;-5.12;66.93;98488.97;5104948;29;20131;-84
2022/12/13 02:55:20;;;;;;;59.15;18.25;;;;;;;-5.27;66.75;98481.78;5086324;29;20156;-83
2022/12/13 02:58:22;;;;;;;55.72;19.73;;;;;;;-5.35;66.78;98473.50;5099593;29;20075;-83
2022/12/13 03:01:31;;;;;;;56.90;19.65;;;;;;;-5.28;66.61;98480.09;5115024;29;20044;-83
2022/12/13 03:08:29;;;;;;;47.33;17.92;;;;;;;-5.44;66.74;98454.00;5110045;29;20059;-85
2022/12/13 03:11:21;;;;;;;63.72;21.30;;;;;;;-5.03;67.16;98475.69;5119758;29;20517;-85
2022/12/13 03:14:19;;;;;;;58.13;20.50;;;;;;;-5.12;66.85;98462.28;5103128;29;20059;-85
2022/12/13 03:17:15;;;;;;;60.10;20.40;;;;;;;-4.85;67.23;98468.09;5100978;29;20047;-85
2022/12/13 03:20:07;;;;;;;59.92;21.25;;;;;;;-5.17;67.47;98444.34;5116017;29;20107;-85
2022/12/13 03:23:13;;;;;;;64.20;20.88;;;;;;;-4.71;67.18;98452.84;5113001;29;20044;-85
2022/12/13 03:26:11;;;;;;;66.38;20.75;;;;;;;-4.83;67.56;98437.84;5124087;29;20047;-84
2022/12/13 03:29:01;;;;;;;73.93;22.63;;;;;;;-4.80;67.46;98455.81;5104590;29;20058;-84
2022/12/13 03:31:52;;;;;;;74.80;22.70;;;;;;;-4.60;67.38;98435.16;5112461;28;20038;-86
2022/12/13 03:34:43;;;;;;;61.75;21.83;;;;;;;-4.56;66.82;98428.13;5127381;28;20031;-84
2022/12/13 03:37:37;;;;;;;68.00;22.52;;;;;;;-4.56;66.85;98443.66;5103772;29;20135;-87
2022/12/13 03:40:29;;;;;;;66.72;21.55;;;;;;;-4.65;66.75;98428.50;5076797;29;20152;-84
2022/12/13 03:43:20;;;;;;;67.88;23.88;;;;;;;-4.41;66.16;98421.44;5102986;29;20067;-85
2022/12/13 03:46:11;;;;;;;65.90;21.73;;;;;;;-4.39;66.05;98430.84;5099160;29;20051;-84
2022/12/13 03:49:02;;;;;;;67.88;23.83;;;;;;;-4.33;66.67;98451.28;5108993;29;20070;-84
2022/12/13 03:51:52;;;;;;;68.07;24.10;;;;;;;-4.36;66.65;98448.00;5107134;29;20058;-84
2022/12/13 03:54:42;;;;;;;63.30;23.10;;;;;;;-4.60;66.09;98421.38;5108089;29;20058;-84
2022/12/13 03:57:34;;;;;;;64.15;22.67;;;;;;;-4.61;66.69;98427.47;5113394;29;20046;-86
2022/12/13 04:00:25;;;;;;;63.85;22.25;;;;;;;-4.69;67.08;98416.59;5114398;29;20059;-84
2022/12/13 04:03:15;;;;;;;60.83;22.73;;;;;;;-4.90;66.81;98376.91;5128124;29;20068;-86
2022/12/13 04:06:08;;;;;;;74.35;22.60;;;;;;;-4.72;66.13;98418.41;5112952;29;20111;-85
2022/12/13 04:08:59;;;;;;;60.70;20.63;;;;;;;-5.42;65.86;98343.69;5127429;29;20063;-86
2022/12/13 04:14:59;;;;;;;53.78;20.33;;;;;;;-5.45;65.87;98359.31;5118270;29;20126;-85
2022/12/13 04:17:49;;;;;;;59.80;21.77;;;;;;;-5.08;66.55;98419.88;5114514;29;20060;-85
2022/12/13 04:20:40;;;;;;;67.68;22.83;;;;;;;-5.01;67.18;98405.81;5116308;29;20142;-84
2022/12/13 04:23:30;;;;;;;69.32;21.88;;;;;;;-5.11;66.92;98352.81;5117593;29;20055;-84
2022/12/13 04:26:21;;;;;;;64.55;22.20;;;;;;;-4.33;66.00;98432.34;5111183;29;20047;-85
2022/12/13 04:29:12;;;;;;;55.03;22.23;;;;;;;-4.36;65.55;98435.88;5115045;29;20079;-85
2022/12/13 04:32:03;;;;;;;61.00;21.83;;;;;;;-4.69;66.31;98422.59;5114537;29;20130;-85
2022/12/13 04:34:54;;;;;;;59.65;21.33;;;;;;;-4.65;65.13;98403.47;5116928;29;20107;-84
2022/12/13 04:37:51;;;;;;;63.28;22.33;;;;;;;-4.82;65.77;98385.22;5118716;29;20059;-85
2022/12/13 04:40:42;;;;;;;69.57;22.90;;;;;;;-5.01;66.45;98359.28;5122972;29;20055;-84
2022/12/13 04:43:32;;;;;;;55.88;21.33;;;;;;;-4.92;66.45;98379.59;5110962;29;20048;-85
2022/12/13 04:46:23;;;;;;;59.75;22.45;;;;;;;-5.16;66.26;98355.59;5120291;29;20055;-84
2022/12/13 04:49:13;;;;;;;64.78;22.13;;;;;;;-4.86;65.92;98387.09;5124179;29;20249;-84
2022/12/13 04:52:03;;;;;;;77.45;23.05;;;;;;;-4.78;65.72;98382.44;5120966;29;20149;-84
2022/12/13 04:54:53;;;;;;;60.13;21.35;;;;;;;-4.97;65.98;98371.16;5122313;29;20066;-86
2022/12/13 04:57:44;;;;;;;60.90;20.75;;;;;;;-4.93;66.74;98388.25;5108198;29;20055;-85
2022/12/13 05:00:35;;;;;;;58.55;22.15;;;;;;;-4.82;66.97;98399.00;5126074;29;20059;-84
2022/12/13 05:03:26;;;;;;;61.50;21.08;;;;;;;-4.50;65.74;98436.47;5119198;29;20080;-84
2022/12/13 05:06:16;;;;;;;57.88;21.55;;;;;;;-4.39;64.95;98430.84;5116596;29;20062;-85
2022/12/13 05:09:16;;;;;;;63.90;23.60;;;;;;;-4.84;65.60;98394.78;5111515;29;20308;-84
2022/12/13 05:12:07;;;;;;;73.07;23.25;;;;;;;-4.78;65.73;98397.13;5119767;29;20054;-86
2022/12/13 05:15:11;;;;;;;56.53;20.27;;;;;;;-5.16;66.76;98363.34;5121072;29;20610;-86
2022/12/13 05:18:05;;;;;;;68.70;22.00;;;;;;;-4.73;66.44;98426.22;5101534;29;20099;-86
2022/12/13 05:21:05;;;;;;;65.18;22.17;;;;;;;-4.71;66.49;98424.41;5100795;29;20078;-87
2022/12/13 05:23:56;;;;;;;59.70;21.55;;;;;;;-5.23;66.03;98354.16;5119437;29;20055;-87
2022/12/13 05:26:46;;;;;;;59.22;21.20;;;;;;;-5.14;66.25;98391.69;5114204;29;20048;-84
2022/12/13 05:29:37;;;;;;;58.42;21.48;;;;;;;-4.72;66.27;98420.16;5121877;29;20059;-84
2022/12/13 05:32:32;;;;;;;61.30;21.85;;;;;;;-4.80;66.35;98417.00;5122488;29;20059;-87
2022/12/13 05:35:33;;;;;;;56.55;21.67;;;;;;;-4.94;66.06;98396.91;5129732;29;20059;-85
2022/12/13 05:38:23;;;;;;;53.55;20.98;;;;;;;-5.07;65.68;98404.31;5098945;29;20092;-87
2022/12/13 05:41:17;;;;;;;52.58;19.55;;;;;;;-5.25;65.71;98400.72;5088614;29;20110;-84
2022/12/13 05:44:09;;;;;;;56.80;21.10;;;;;;;-5.27;65.50;98410.25;5109405;29;20119;-85
2022/12/13 05:46:59;;;;;;;55.40;18.65;;;;;;;-5.68;65.83;98357.63;5110589;29;20419;-84
2022/12/13 05:49:52;;;;;;;60.28;21.80;;;;;;;-5.63;65.54;98376.34;5106225;29;20153;-84
2022/12/13 05:52:43;;;;;;;55.90;20.08;;;;;;;-5.40;65.42;98418.53;5108619;29;20142;-83
2022/12/13 05:55:33;;;;;;;50.88;19.75;;;;;;;-5.60;65.63;98404.66;5097651;29;20111;-83
2022/12/13 05:58:23;;;;;;;54.95;19.95;;;;;;;-5.74;65.52;98378.50;5092681;29;20062;-84
2022/12/13 06:01:15;;;;;;;48.60;18.42;;;;;;;-5.76;65.31;98383.75;5108374;29;20473;-83
2022/12/13 06:04:05;;;;;;;46.70;18.80;;;;;;;-5.87;65.42;98362.63;5116537;29;20078;-84
2022/12/13 06:06:55;;;;;;;52.83;20.88;;;;;;;-5.63;65.17;98416.84;5102372;29;20099;-82
2022/12/13 06:09:46;;;;;;;50.95;18.80;;;;;;;-5.65;65.25;98413.50;5095423;29;20051;-83
2022/12/13 06:12:37;;;;;;;57.50;20.05;;;;;;;-5.81;65.13;98398.56;5120241;29;20051;-84
2022/12/13 06:15:32;;;;;;;56.45;19.48;;;;;;;-5.81;65.23;98401.13;5118957;29;20051;-84
2022/12/13 06:18:24;;;;;;;55.85;18.92;;;;;;;-5.82;65.34;98407.22;5102199;29;20075;-84
2022/12/13 06:21:14;;;;;;;51.67;19.02;;;;;;;-5.87;65.28;98410.84;5098481;29;20052;-84
2022/12/13 06:24:06;;;;;;;56.33;20.42;;;;;;;-5.98;64.96;98388.06;5124443;28;20042;-86
2022/12/13 06:26:58;;;;;;;57.92;21.45;;;;;;;-5.97;65.37;98412.94;5126728;28;20118;-84
2022/12/13 06:29:49;;;;;;;50.77;19.17;;;;;;;-5.96;66.80;98393.97;5097199;29;20058;-83
2022/12/13 06:32:39;;;;;;;55.58;20.02;;;;;;;-5.76;66.62;98412.16;5096093;29;20055;-83
2022/12/13 06:35:33;;;;;;;;;;;;;;;-5.94;66.81;98410.25;5084683;29;20082;-84
2022/12/13 06:38:28;;;;;;;57.20;19.17;;;;;;;-6.10;66.29;98397.06;5080614;29;20120;-83
2022/12/13 06:41:21;;;;;;;52.42;19.48;;;;;;;-6.06;66.58;98411.56;5078520;29;20082;-84
2022/12/13 06:44:17;;;;;;;53.40;19.17;;;;;;;-6.15;66.94;98394.66;5078720;29;20075;-84
2022/12/13 06:47:08;;;;;;;56.72;19.88;;;;;;;-6.11;66.35;98410.03;5100204;29;20180;-84
2022/12/13 06:50:02;;;;;;;57.50;18.90;;;;;;;-6.07;65.97;98421.94;5091763;29;20573;-84
2022/12/13 06:52:55;;;;;;;;;;;;;;;-6.13;66.06;98419.56;5105527;29;20132;-84
2022/12/13 06:55:45;;;;;;;47.25;17.33;;;;;;;-6.26;65.61;98412.25;5096417;29;19928;-83
2022/12/13 06:58:36;;;;;;;48.20;18.08;;;;;;;-6.23;66.06;98411.31;5100453;29;20111;-84
2022/12/13 07:01:26;;;;;;;50.75;18.63;;;;;;;-6.30;65.79;98405.50;5106092;29;20063;-85
2022/12/13 07:04:26;;;;;;;59.60;18.67;;;;;;;-6.25;65.85;98400.22;5127648;28;20055;-84
2022/12/13 07:07:20;;;;;;;56.17;20.10;;;;;;;-6.17;66.42;98418.84;5113526;29;20050;-84
2022/12/13 07:10:11;;;;;;;54.88;19.17;;;;;;;-6.12;66.60;98424.69;5106228;29;20054;-83
2022/12/13 07:13:11;;;;;;;61.63;20.13;;;;;;;-6.28;66.70;98411.47;5106897;29;20135;-85
2022/12/13 07:16:01;;;;;;;54.13;18.88;;;;;;;-6.16;66.34;98417.91;5103319;28;20999;-85
2022/12/13 07:18:56;;;;;;;72.72;23.50;;;;;;;-6.16;66.46;98429.13;5088543;29;20125;-86
2022/12/13 07:21:50;;;;;;;109.75;32.33;;;;;;;-6.18;66.80;98412.00;5111888;29;20063;-85
2022/12/13 07:24:41;;;;;;;128.77;39.53;;;;;;;-5.80;67.29;98423.47;5112100;29;20070;-84
2022/12/13 07:27:32;;;;;;;67.85;24.55;;;;;;;-5.49;66.62;98427.50;5105872;29;20661;-85
2022/12/13 07:30:22;;;;;;;62.95;21.67;;;;;;;-5.45;66.88;98429.91;5094863;29;20063;-85
2022/12/13 07:33:13;;;;;;;60.67;20.85;;;;;;;-5.69;66.85;98413.59;5094677;29;20430;-84
2022/12/13 07:36:14;;;;;;;54.95;20.08;;;;;;;-5.61;66.47;98425.38;5088141;29;20672;-84
2022/12/13 07:39:04;;;;;;;56.13;20.13;;;;;;;-5.74;66.29;98412.91;5095406;29;20539;-83
2022/12/13 07:41:55;;;;;;;58.33;20.38;;;;;;;-5.64;65.59;98441.81;5096020;29;20060;-84
2022/12/13 07:44:45;;;;;;;83.25;31.65;;;;;;;-5.59;66.26;98428.75;5080629;29;20138;-84
2022/12/13 07:47:35;;;;;;;70.47;27.02;;;;;;;-5.34;66.05;98452.75;5081453;29;20075;-84
2022/12/13 07:50:26;;;;;;;68.30;25.45;;;;;;;-5.45;66.28;98436.81;5092060;29;20074;-84
2022/12/13 07:53:27;;;;;;;67.97;24.52;;;;;;;-5.31;65.39;98460.38;5100163;29;20066;-86
2022/12/13 07:56:22;;;;;;;62.65;22.63;;;;;;;-5.43;66.61;98455.66;5098859;29;20070;-84
2022/12/13 07:59:13;;;;;;;54.22;19.65;;;;;;;-5.26;67.24;98457.66;5084793;28;20122;-84
2022/12/13 08:02:05;;;;;;;61.35;21.60;;;;;;;-5.14;66.60;98453.72;5085847;29;20066;-85
2022/12/13 08:04:55;;;;;;;56.22;20.70;;;;;;;-5.15;65.87;98459.81;5093640;29;20062;-83
2022/12/13 08:07:46;;;;;;;62.88;22.33;;;;;;;-5.13;65.98;98468.31;5101652;29;20087;-84
2022/12/13 08:10:36;;;;;;;61.70;22.08;;;;;;;-5.20;65.86;98460.84;5097907;29;20054;-84
2022/12/13 08:13:26;;;;;;;58.70;21.15;;;;;;;-5.10;66.05;98479.41;5100262;29;20143;-85
2022/12/13 08:16:16;;;;;;;65.40;22.73;;;;;;;-4.96;66.25;98474.53;5091486;29;20056;-84
2022/12/13 08:19:18;;;;;;;61.55;21.10;;;;;;;-5.11;65.76;98443.25;5100647;29;20553;-84
2022/12/13 08:22:12;;;;;;;57.22;22.15;;;;;;;-4.88;65.53;98481.97;5108593;29;20066;-85
2022/12/13 08:25:05;;;;;;;56.72;20.85;;;;;;;-5.01;65.70;98452.34;5099063;29;20063;-84
2022/12/13 08:27:55;;;;;;;54.63;20.17;;;;;;;-4.85;65.22;98462.94;5098193;29;20091;-85
2022/12/13 08:30:52;;;;;;;61.60;20.85;;;;;;;-4.66;64.87;98478.56;5103642;29;20070;-85
2022/12/13 08:33:45;;;;;;;68.13;21.65;;;;;;;-4.58;65.50;98471.31;5109756;29;20051;-85
2022/12/13 08:36:36;;;;;;;60.83;20.85;;;;;;;-4.63;64.90;98435.28;5096114;29;20075;-84
2022/12/13 08:39:27;;;;;;;68.80;22.33;;;;;;;-4.60;65.22;98434.31;5078994;29;20059;-83
2022/12/13 08:47:05;;;;;;;60.10;20.35;;;;;;;-4.11;65.67;98476.25;5037079;29;20690;-83
2022/12/13 08:50:01;;;;;;;69.88;22.85;;;;;;;-3.95;65.83;98479.03;5024879;29;20101;-83
2022/12/13 08:52:56;;;;;;;59.08;22.27;;;;;;;-4.22;65.36;98413.75;5025660;29;20053;-83
2022/12/13 08:55:49;;;;;;;65.78;22.15;;;;;;;-3.69;65.26;98475.31;5031818;29;20094;-83
2022/12/13 08:58:40;;;;;;;68.28;24.80;;;;;;;-4.16;65.72;98385.00;5010938;29;20084;-84
2022/12/13 09:01:31;;;;;;;312.08;94.00;;;;;;;-3.81;65.58;98391.19;5083176;29;20072;-83
2022/12/13 09:04:22;;;;;;;95.55;35.47;;;;;;;-3.47;64.68;98408.66;5107879;28;20070;-84
2022/12/13 09:07:21;;;;;;;66.93;25.98;;;;;;;-3.35;64.82;98395.09;5086935;29;20059;-84
2022/12/13 09:10:11;;;;;;;69.90;24.60;;;;;;;-2.83;64.63;98448.84;5085802;23;20048;-67
2022/12/13 09:13:16;;;;;;;63.08;22.77;;;;;;;-2.67;64.62;98464.53;5073912;29;20059;-66
2022/12/13 09:16:22;;;;;;;62.08;22.33;;;;;;;-2.54;63.19;98464.78;5057208;29;20201;-66
2022/12/13 09:19:14;;;;;;;59.80;23.00;;;;;;;-2.15;62.34;98462.78;5059202;29;20060;-68
2022/12/13 09:22:16;;;;;;;58.97;21.90;;;;;;;-2.34;62.10;98443.00;5056196;29;20104;-69
2022/12/13 09:25:22;;;;;;;63.47;20.17;;;;;;;-2.27;61.85;98462.56;5058810;29;20663;-70
2022/12/13 09:28:13;;;;;;;54.70;19.63;;;;;;;-2.08;62.28;98462.47;5049945;29;20063;-66
2022/12/13 09:31:11;;;;;;;45.75;18.48;;;;;;;-2.23;61.48;98458.88;5062747;29;20075;-67
2022/12/13 09:34:01;;;;;;;48.75;18.02;;;;;;;-2.03;61.56;98456.09;5062881;29;20076;-67
2022/12/13 09:36:52;;;;;;;51.17;18.70;;;;;;;-2.39;60.87;98451.00;5046950;29;20132;-69
2022/12/13 09:39:50;;;;;;;47.20;17.95;;;;;;;-2.33;59.99;98463.69;5056582;29;20075;-67
2022/12/13 09:42:49;;;;;;;41.63;17.50;;;;;;;-2.57;60.38;98473.53;5054177;29;20150;-68
2022/12/13 09:46:06;;;;;;;43.63;16.35;;;;;;;-2.19;58.95;98478.59;5058930;29;20060;-69
2022/12/13 09:49:37;;;;;;;50.47;17.33;;;;;;;-1.87;59.60;98479.56;5051068;29;20688;-69
2022/12/13 09:52:37;;;;;;;47.30;17.80;;;;;;;-1.96;58.77;98460.06;5055997;29;20052;-69
2022/12/13 09:55:38;;;;;;;45.78;17.27;;;;;;;-2.23;58.53;98454.53;5055543;29;20442;-70
2022/12/13 09:58:31;;;;;;;40.97;16.38;;;;;;;-1.90;58.85;98456.31;5055152;29;20044;-69
2022/12/13 10:01:22;;;;;;;46.25;16.02;;;;;;;-2.09;59.73;98434.81;5049006;29;20075;-69
2022/12/13 10:04:14;;;;;;;42.75;16.02;;;;;;;-1.60;58.70;98453.88;5052957;29;20434;-69
2022/12/13 10:07:20;;;;;;;42.00;17.05;;;;;;;-1.82;58.49;98464.56;5045574;29;20057;-66
2022/12/13 10:10:15;;;;;;;47.42;15.77;;;;;;;-1.91;58.11;98395.72;5052396;29;20427;-68
2022/12/13 10:13:18;;;;;;;48.35;16.15;;;;;;;-1.45;58.52;98455.69;5060166;29;20654;-67
2022/12/13 10:16:17;;;;;;;40.03;16.58;;;;;;;-1.45;60.38;98437.47;5057012;29;20064;-66
2022/12/13 10:19:21;;;;;;;41.08;16.63;;;;;;;-1.50;59.47;98439.47;5056546;29;21119;-68
2022/12/13 10:22:21;;;;;;;38.65;14.65;;;;;;;-1.75;56.98;98439.94;5057818;29;20549;-68
2022/12/13 10:25:13;;;;;;;39.50;15.57;;;;;;;-1.48;57.84;98444.59;5066787;29;20052;-67
2022/12/13 10:28:03;;;;;;;39.67;15.10;;;;;;;-1.59;57.64;98436.50;5062135;29;20056;-69
2022/12/13 10:30:56;;;;;;;38.00;14.63;;;;;;;-1.42;57.82;98442.50;5055654;29;20519;-68
2022/12/13 10:33:54;;;;;;;36.80;14.55;;;;;;;-1.29;57.75;98432.28;5060907;29;20064;-70
2022/12/13 10:36:45;;;;;;;40.33;16.05;;;;;;;-1.29;58.24;98426.22;5064022;29;20101;-68
2022/12/13 10:39:39;;;;;;;44.25;15.05;;;;;;;-1.24;59.13;98424.22;5059215;29;20410;-67
2022/12/13 10:42:29;;;;;;;45.10;15.30;;;;;;;-1.34;57.89;98397.88;5064615;29;20111;-69
2022/12/13 10:45:24;;;;;;;40.65;15.13;;;;;;;-1.09;56.38;98405.19;5061691;29;20095;-70
2022/12/13 10:48:23;;;;;;;38.78;14.93;;;;;;;-1.08;57.36;98406.84;5062147;29;20063;-67
2022/12/13 10:51:18;;;;;;;34.95;14.57;;;;;;;-1.19;57.00;98414.41;5062180;29;20430;-67
2022/12/13 10:54:42;;;;;;;35.25;14.00;;;;;;;-1.36;56.94;98410.09;5063569;29;20785;-67
2022/12/13 10:57:38;;;;;;;35.40;14.75;;;;;;;-1.18;57.46;98395.28;5034456;29;20455;-69
2022/12/13 11:00:45;;;;;;;40.17;15.40;;;;;;;-1.04;56.73;98417.91;5062865;29;20139;-67
2022/12/13 11:03:36;;;;;;;35.58;13.75;;;;;;;-1.22;55.96;98376.41;5062448;29;20064;-66
2022/12/13 11:06:27;;;;;;;37.08;14.43;;;;;;;-1.01;56.96;98394.34;5071181;29;20554;-69
2022/12/13 11:09:28;;;;;;;37.92;13.93;;;;;;;-1.04;57.11;98382.31;5063732;29;20064;-68
2022/12/13 11:12:27;;;;;;;33.13;14.15;;;;;;;-0.87;57.89;98402.19;5068638;29;20062;-69
2022/12/13 11:15:22;;;;;;;39.83;15.02;;;;;;;-0.78;56.74;98395.63;5066236;29;20057;-69
2022/12/13 11:18:20;;;;;;;41.50;14.93;;;;;;;-0.65;56.02;98394.00;5053483;29;20516;-69
2022/12/13 11:21:13;;;;;;;40.45;15.43;;;;;;;-0.66;56.33;98363.69;5060224;29;20155;-69
2022/12/13 11:24:06;;;;;;;34.90;14.13;;;;;;;-0.48;55.14;98383.44;5056163;29;20084;-69
2022/12/13 11:27:04;;;;;;;39.85;14.65;;;;;;;-0.59;56.24;98383.22;5055028;29;20435;-70
2022/12/13 11:30:21;;;;;;;36.65;13.60;;;;;;;-0.46;56.09;98375.56;5048514;29;20535;-70
2022/12/13 11:33:44;;;;;;;40.88;14.35;;;;;;;-0.45;57.22;98374.63;5053765;29;20510;-70
2022/12/13 11:37:03;;;;;;;38.40;15.13;;;;;;;-0.47;55.77;98376.47;5051697;29;20435;-70
2022/12/13 11:40:12;;;;;;;40.28;14.05;;;;;;;-0.80;56.18;98354.06;5055891;29;20426;-70
2022/12/13 11:43:31;;;;;;;35.78;14.40;;;;;;;-0.45;55.56;98369.41;5041711;29;20056;-69
2022/12/13 11:46:41;;;;;;;39.60;14.93;;;;;;;-0.39;55.25;98370.81;5058546;29;20120;-69
2022/12/13 11:49:40;;;;;;;37.35;14.43;;;;;;;-0.43;55.64;98370.16;5059687;29;20451;-69
2022/12/13 11:52:39;;;;;;;41.20;14.73;;;;;;;-0.45;56.38;98358.16;5057904;29;20063;-70
2022/12/13 11:55:43;;;;;;;38.42;14.60;;;;;;;-0.41;55.37;98352.66;5058259;29;20100;-69
2022/12/13 11:59:02;;;;;;;41.63;15.07;;;;;;;-0.17;55.43;98352.94;5059577;29;20172;-70
2022/12/13 12:02:04;;;;;;;35.03;14.33;;;;;;;-0.22;55.82;98347.19;5059988;29;20131;-70
2022/12/13 12:04:56;;;;;;;40.88;14.85;;;;;;;-0.07;55.06;98351.47;5064135;29;20060;-70
2022/12/13 12:07:57;;;;;;;36.65;14.65;;;;;;;-0.16;55.84;98341.63;5060483;29;20052;-70
2022/12/13 12:11:19;;;;;;;37.50;14.32;;;;;;;0.00;55.50;98351.97;5070343;29;20878;-67
2022/12/13 12:14:15;;;;;;;38.20;14.48;;;;;;;0.01;55.45;98343.19;5058690;29;20075;-66
2022/12/13 12:17:12;;;;;;;41.22;15.13;;;;;;;-0.43;56.36;98267.72;5089300;29;20127;-67
2022/12/13 12:20:11;;;;;;;39.38;15.38;;;;;;;0.05;55.88;98333.41;5089898;29;20056;-67
2022/12/13 12:23:25;;;;;;;35.67;15.13;;;;;;;0.08;55.41;98335.84;5068999;29;20487;-67
2022/12/13 12:26:18;;;;;;;39.35;14.80;;;;;;;-0.07;55.37;98353.25;5089604;29;20059;-68
2022/12/13 12:29:45;;;;;;;46.63;14.90;;;;;;;0.07;56.03;98344.59;5092140;29;20088;-67
2022/12/13 12:33:09;;;;;;;47.97;15.38;;;;;;;0.09;56.50;98330.53;5061635;29;20552;-69
2022/12/13 12:36:32;;;;;;;41.60;14.98;;;;;;;0.18;55.96;98327.34;5092081;29;20115;-69
2022/12/13 12:39:43;;;;;;;39.25;14.52;;;;;;;0.27;56.16;98322.50;5071184;29;20187;-69
2022/12/13 12:42:33;;;;;;;41.85;14.73;;;;;;;0.39;54.91;98332.16;5057429;29;20419;-68
2022/12/13 12:45:59;;;;;;;33.70;14.77;;;;;;;0.30;55.49;98325.75;5086264;29;20062;-70
2022/12/13 12:49:23;;;;;;;34.42;13.57;;;;;;;0.28;55.48;98335.44;5089168;29;20423;-69
2022/12/13 12:52:48;;;;;;;37.15;14.05;;;;;;;0.32;55.32;98334.31;5063699;29;20158;-67
2022/12/13 12:55:54;;;;;;;36.17;14.20;;;;;;;0.21;56.59;98329.78;5073240;29;20113;-69
2022/12/13 12:58:50;;;;;;;35.28;13.95;;;;;;;0.19;56.71;98315.16;5053503;29;20060;-68
2022/12/13 13:01:54;;;;;;;35.58;13.50;;;;;;;0.23;55.65;98312.28;5067139;29;20112;-68
2022/12/13 13:04:53;;;;;;;38.28;14.65;;;;;;;0.31;55.15;98293.53;5065135;29;20103;-69
2022/12/13 13:07:55;;;;;;;44.55;14.32;;;;;;;0.27;54.92;98299.88;5062530;29;20062;-68
2022/12/13 13:10:45;;;;;;;41.63;17.80;;;;;;;0.35;55.35;98299.38;5040865;29;20235;-67
2022/12/13 13:13:58;;;;;;;32.65;13.95;;;;;;;0.32;55.46;98287.38;5058225;29;20048;-69
2022/12/13 13:16:51;;;;;;;40.63;15.45;;;;;;;0.47;55.68;98298.63;5054426;29;20402;-67
2022/12/13 13:20:13;;;;;;;40.08;14.40;;;;;;;0.23;54.89;98254.91;5055722;29;20063;-67
2022/12/13 13:23:12;;;;;;;37.97;13.82;;;;;;;0.55;55.28;98301.56;5057581;29;20394;-68
2022/12/13 13:26:34;;;;;;;38.15;13.07;;;;;;;0.49;55.42;98288.91;5060994;29;20187;-68
2022/12/13 13:29:31;;;;;;;37.83;14.60;;;;;;;0.48;54.89;98289.84;5055706;29;20075;-68
2022/12/13 13:32:25;;;;;;;44.92;15.20;;;;;;;0.54;55.01;98299.06;5052911;29;20126;-68
2022/12/13 13:35:31;;;;;;;35.45;14.13;;;;;;;0.45;54.81;98290.03;5051887;29;20056;-68
2022/12/13 13:38:48;;;;;;;33.85;13.73;;;;;;;0.42;55.36;98290.22;5052900;29;20086;-69
2022/12/13 13:41:40;;;;;;;40.78;14.93;;;;;;;0.43;54.81;98287.56;5053660;29;20294;-69
2022/12/13 13:44:48;;;;;;;42.35;14.73;;;;;;;0.53;55.19;98293.00;5053472;29;20577;-69